Time;durP1;ratioP1;P1;durP2;ratioP2;P2;SDS_P1;SDS_P2;PMS_P1;PMS_P2;Temp;Humidity;BMP_temperature;BMP_pressure;BME280_temperature;BME280_humidity;BME280_pressure;Samples;Min_cycle;Max_cycle;Signal;HPM_P1;HPM_P2
2021/10/31 00:01:44;;;;;;;29.85;22.45;;;22.90;35.10;;;;;;4782884;29;20083;-53
2021/10/31 00:04:11;;;;;;;30.50;21.80;;;22.90;35.10;;;;;;4785331;29;20545;-53
2021/10/31 00:06:39;;;;;;;30.33;21.90;;;22.90;35.10;;;;;;4784902;29;20128;-54
2021/10/31 00:09:07;;;;;;;29.83;21.63;;;23.00;35.20;;;;;;4766145;29;20464;-54
2021/10/31 00:11:35;;;;;;;27.35;21.63;;;23.00;35.20;;;;;;4784658;29;20502;-55
2021/10/31 00:14:02;;;;;;;28.40;21.30;;;23.00;35.10;;;;;;4784328;29;20055;-56
2021/10/31 00:16:29;;;;;;;30.38;20.92;;;23.00;35.10;;;;;;4785253;29;20126;-54
2021/10/31 00:18:56;;;;;;;28.95;21.67;;;23.00;35.10;;;;;;4772379;29;20105;-54
2021/10/31 00:21:25;;;;;;;27.20;20.13;;;22.90;35.10;;;;;;4779208;29;20059;-54
2021/10/31 00:23:53;;;;;;;30.48;20.92;;;22.90;35.10;;;;;;4785137;29;20402;-53
2021/10/31 00:26:22;;;;;;;31.10;21.05;;;22.90;35.10;;;;;;4784279;29;20108;-53
2021/10/31 00:28:49;;;;;;;28.00;21.48;;;22.90;35.10;;;;;;4772038;29;20063;-54
2021/10/31 00:31:16;;;;;;;28.02;20.52;;;22.90;35.10;;;;;;4778970;29;20059;-53
2021/10/31 00:33:44;;;;;;;30.77;21.13;;;22.90;35.10;;;;;;4784068;29;20572;-54
2021/10/31 00:36:11;;;;;;;26.05;19.13;;;22.90;35.10;;;;;;4784660;29;20043;-54
2021/10/31 00:38:38;;;;;;;27.98;19.95;;;22.90;35.10;;;;;;4771351;29;20798;-54
2021/10/31 00:41:05;;;;;;;28.80;20.20;;;22.90;35.10;;;;;;4779609;29;20373;-54
2021/10/31 00:43:32;;;;;;;26.80;18.95;;;22.90;35.10;;;;;;4782587;30;20392;-55
2021/10/31 00:45:59;;;;;;;26.73;20.15;;;22.90;35.10;;;;;;4784340;29;20226;-54
2021/10/31 00:48:27;;;;;;;27.02;19.40;;;22.90;35.20;;;;;;4771685;29;20574;-54
2021/10/31 00:50:54;;;;;;;28.67;19.23;;;22.90;35.20;;;;;;4777604;29;20579;-52
2021/10/31 00:53:22;;;;;;;28.02;19.73;;;22.90;35.20;;;;;;4784310;29;20128;-53
2021/10/31 00:55:49;;;;;;;25.27;18.98;;;22.90;35.20;;;;;;4784108;29;20549;-54
2021/10/31 00:58:18;;;;;;;22.85;18.27;;;22.90;35.20;;;;;;4777060;29;20051;-53
2021/10/31 01:00:47;;;;;;;26.90;18.98;;;22.90;35.20;;;;;;4773110;29;20426;-54
2021/10/31 01:03:14;;;;;;;26.88;18.70;;;22.90;35.20;;;;;;4782360;30;20062;-52
2021/10/31 01:05:51;;;;;;;25.17;18.58;;;22.90;35.20;;;;;;4784494;29;20055;-54
2021/10/31 01:08:54;;;;;;;25.65;18.48;;;22.90;35.20;;;;;;4774082;30;20109;-55
2021/10/31 01:12:01;;;;;;;27.35;19.10;;;22.90;35.30;;;;;;4767733;30;20062;-53
2021/10/31 01:15:03;;;;;;;26.08;19.15;;;22.80;35.20;;;;;;4782869;29;20452;-52
2021/10/31 01:18:10;;;;;;;23.35;17.40;;;22.80;35.20;;;;;;4783242;29;20083;-53
2021/10/31 01:21:06;;;;;;;24.33;18.00;;;22.80;35.20;;;;;;4772884;29;20051;-52
2021/10/31 01:24:10;;;;;;;22.95;17.88;;;22.80;35.20;;;;;;4783395;29;20094;-52
2021/10/31 01:27:16;;;;;;;24.48;18.02;;;22.80;35.30;;;;;;4783490;29;20047;-50
2021/10/31 01:30:23;;;;;;;26.50;18.88;;;22.80;35.30;;;;;;4764192;29;20078;-54
2021/10/31 01:33:19;;;;;;;25.95;19.17;;;22.80;35.30;;;;;;4782938;29;20203;-51
2021/10/31 01:35:53;;;;;;;25.48;18.60;;;22.80;35.30;;;;;;4784129;29;20086;-53
2021/10/31 01:38:31;;;;;;;24.25;17.70;;;22.80;35.30;;;;;;4773017;29;20330;-57
2021/10/31 01:41:11;;;;;;;22.15;17.42;;;22.80;35.30;;;;;;4778716;29;20044;-53
2021/10/31 01:44:05;;;;;;;25.70;18.38;;;22.80;35.30;;;;;;4782890;29;20362;-53
2021/10/31 01:46:40;;;;;;;23.52;17.73;;;22.80;35.30;;;;;;4783430;29;20091;-53
2021/10/31 01:49:33;;;;;;;25.42;17.65;;;22.80;35.20;;;;;;4765381;29;20475;-54
2021/10/31 01:52:12;;;;;;;22.42;17.45;;;22.80;35.20;;;;;;4783401;29;20061;-54
2021/10/31 01:54:54;;;;;;;25.33;18.55;;;22.80;35.20;;;;;;4783066;29;20130;-53
2021/10/31 01:57:23;;;;;;;23.15;17.05;;;22.80;35.20;;;;;;4782714;29;20110;-54
2021/10/31 02:00:00;;;;;;;21.83;16.60;;;22.80;35.20;;;;;;4764672;29;20105;-53
2021/10/31 02:02:30;;;;;;;22.88;17.30;;;22.80;35.20;;;;;;4782908;29;20559;-54
2021/10/31 02:04:59;;;;;;;24.70;17.17;;;22.80;35.20;;;;;;4783168;29;20309;-54
2021/10/31 02:07:28;;;;;;;24.83;17.92;;;22.80;35.20;;;;;;4781700;30;20052;-53
2021/10/31 02:09:58;;;;;;;22.40;16.80;;;22.80;35.10;;;;;;4765998;29;20110;-51
2021/10/31 02:12:28;;;;;;;24.40;18.02;;;22.80;35.10;;;;;;4783228;29;20094;-50
2021/10/31 02:14:56;;;;;;;23.63;17.42;;;22.80;35.20;;;;;;4781997;29;20047;-55
2021/10/31 02:17:24;;;;;;;23.05;17.02;;;22.80;35.20;;;;;;4783414;29;20537;-52
2021/10/31 02:19:53;;;;;;;23.30;16.83;;;22.80;35.20;;;;;;4762642;29;20100;-53
2021/10/31 02:22:31;;;;;;;27.20;17.27;;;22.80;35.20;;;;;;4782833;29;20474;-56
2021/10/31 02:25:03;;;;;;;19.02;15.50;;;22.80;35.20;;;;;;4782380;29;20060;-54
2021/10/31 02:27:32;;;;;;;21.73;16.30;;;22.80;35.20;;;;;;4781290;29;20143;-52
2021/10/31 02:30:01;;;;;;;23.67;16.60;;;22.80;35.20;;;;;;4766171;29;20596;-55
2021/10/31 02:32:31;;;;;;;21.80;16.52;;;22.70;35.20;;;;;;4782208;29;20126;-50
2021/10/31 02:34:59;;;;;;;19.95;16.05;;;22.80;35.20;;;;;;4782313;29;20489;-50
2021/10/31 02:37:27;;;;;;;22.67;17.00;;;22.70;35.20;;;;;;4781430;30;20052;-54
2021/10/31 02:39:55;;;;;;;20.05;15.20;;;22.80;35.20;;;;;;4763987;29;20112;-52
2021/10/31 02:42:22;;;;;;;23.48;17.40;;;22.70;35.20;;;;;;4782563;29;20498;-52
2021/10/31 02:44:49;;;;;;;23.20;15.95;;;22.80;35.20;;;;;;4781607;29;20531;-56
2021/10/31 02:47:28;;;;;;;22.27;16.88;;;22.70;35.20;;;;;;4782572;29;20055;-54
2021/10/31 02:49:57;;;;;;;21.05;16.02;;;22.70;35.20;;;;;;4764098;29;20267;-51
2021/10/31 02:53:12;;;;;;;22.17;17.02;;;22.80;35.20;;;;;;4782534;29;20069;-54
2021/10/31 02:55:58;;;;;;;20.77;15.60;;;22.70;35.20;;;;;;4779797;29;20139;-53
2021/10/31 02:58:40;;;;;;;18.75;14.82;;;22.70;35.20;;;;;;4768565;29;20578;-53
2021/10/31 03:01:08;;;;;;;21.38;16.13;;;22.70;35.20;;;;;;4776367;29;20059;-54
2021/10/31 03:03:36;;;;;;;21.00;15.43;;;22.70;35.20;;;;;;4780615;29;20055;-53
2021/10/31 03:06:04;;;;;;;19.70;16.50;;;22.70;35.20;;;;;;4781269;29;20055;-52
2021/10/31 03:08:32;;;;;;;19.40;14.50;;;22.70;35.20;;;;;;4768700;29;20050;-52
2021/10/31 03:11:07;;;;;;;20.73;15.48;;;22.70;35.20;;;;;;4774517;29;20051;-53
2021/10/31 03:13:36;;;;;;;19.25;15.23;;;22.70;35.30;;;;;;4780592;29;20370;-53
2021/10/31 03:16:04;;;;;;;21.63;16.08;;;22.70;35.20;;;;;;4780183;29;20143;-55
2021/10/31 03:18:32;;;;;;;19.67;15.52;;;22.70;35.30;;;;;;4768766;29;20052;-57
2021/10/31 03:20:59;;;;;;;19.48;14.38;;;22.70;35.20;;;;;;4774671;29;20051;-54
2021/10/31 03:23:27;;;;;;;19.23;15.13;;;22.70;35.30;;;;;;4781204;29;20217;-53
2021/10/31 03:25:56;;;;;;;21.42;15.32;;;22.70;35.20;;;;;;4780093;29;20525;-53
2021/10/31 03:28:23;;;;;;;22.45;15.82;;;22.70;35.20;;;;;;4767822;29;20124;-56
2021/10/31 03:30:50;;;;;;;19.40;14.88;;;22.70;35.20;;;;;;4775871;29;20059;-54
2021/10/31 03:33:17;;;;;;;19.70;15.02;;;22.70;35.20;;;;;;4780713;29;20112;-55
2021/10/31 03:35:44;;;;;;;19.77;15.32;;;22.70;35.20;;;;;;4784082;29;20047;-54
2021/10/31 03:38:11;;;;;;;17.08;13.43;;;22.70;35.10;;;;;;4781915;29;20055;-54
2021/10/31 03:40:39;;;;;;;17.42;13.82;;;22.70;35.10;;;;;;4779309;29;20146;-52
2021/10/31 03:43:06;;;;;;;18.08;14.02;;;22.70;35.20;;;;;;4789683;29;20054;-54
2021/10/31 03:45:34;;;;;;;19.17;15.05;;;22.70;35.20;;;;;;4788862;29;20417;-55
2021/10/31 03:48:03;;;;;;;18.10;14.05;;;22.70;35.20;;;;;;4782144;29;20122;-54
2021/10/31 03:50:31;;;;;;;20.52;13.80;;;22.70;35.10;;;;;;4778063;29;20090;-55
2021/10/31 03:52:59;;;;;;;19.75;15.15;;;22.70;35.10;;;;;;4789381;29;20059;-54
2021/10/31 03:55:26;;;;;;;17.88;14.23;;;22.70;35.10;;;;;;4789257;29;20461;-55
2021/10/31 03:57:56;;;;;;;16.00;13.45;;;22.70;35.10;;;;;;4781546;29;20082;-54
2021/10/31 04:00:23;;;;;;;21.52;14.73;;;22.70;35.10;;;;;;4779464;29;20043;-54
2021/10/31 04:02:51;;;;;;;19.38;15.52;;;22.70;35.10;;;;;;4788844;29;20146;-53
2021/10/31 04:05:19;;;;;;;17.90;14.20;;;22.70;35.20;;;;;;4789002;29;20138;-50
2021/10/31 04:07:47;;;;;;;18.95;14.20;;;22.70;35.20;;;;;;4781887;29;20109;-54
2021/10/31 04:10:15;;;;;;;18.70;14.95;;;22.70;35.20;;;;;;4778385;29;20079;-52
2021/10/31 04:12:42;;;;;;;17.77;13.80;;;22.70;35.20;;;;;;4788991;29;20061;-54
2021/10/31 04:15:09;;;;;;;18.67;13.70;;;22.60;35.10;;;;;;4788831;29;20522;-55
2021/10/31 04:17:37;;;;;;;17.80;13.70;;;22.70;35.20;;;;;;4787172;29;20047;-50
2021/10/31 04:20:06;;;;;;;18.02;14.07;;;22.60;35.10;;;;;;4773283;29;20086;-55
2021/10/31 04:22:34;;;;;;;18.33;14.35;;;22.60;35.10;;;;;;4788581;29;20051;-54
2021/10/31 04:25:03;;;;;;;18.65;13.65;;;22.70;35.20;;;;;;4788781;29;20115;-54
2021/10/31 04:27:32;;;;;;;16.60;13.13;;;22.70;35.20;;;;;;4788217;29;20048;-52
2021/10/31 04:29:59;;;;;;;19.00;14.75;;;22.70;35.20;;;;;;4773535;29;20083;-54
2021/10/31 04:32:27;;;;;;;17.85;13.68;;;22.60;35.10;;;;;;4788445;29;20055;-51
2021/10/31 04:34:54;;;;;;;16.13;13.13;;;22.70;35.20;;;;;;4788362;29;20051;-54
2021/10/31 04:37:21;;;;;;;19.60;14.23;;;22.60;35.10;;;;;;4788595;29;20059;-52
2021/10/31 04:39:49;;;;;;;17.70;13.60;;;22.60;35.10;;;;;;4771883;29;20087;-53
2021/10/31 04:42:16;;;;;;;16.15;13.48;;;22.60;35.70;;;;;;4788273;29;20059;-53
2021/10/31 04:44:43;;;;;;;17.75;14.02;;;22.60;35.10;;;;;;4788637;29;20119;-52
2021/10/31 04:47:11;;;;;;;18.50;13.90;;;22.60;35.10;;;;;;4787536;29;20061;-53
2021/10/31 04:49:39;;;;;;;15.38;12.82;;;22.60;35.10;;;;;;4769798;29;20480;-54
2021/10/31 04:52:07;;;;;;;21.35;14.63;;;22.60;35.10;;;;;;4785558;29;20130;-51
2021/10/31 04:54:34;;;;;;;17.50;13.50;;;22.60;35.20;;;;;;4786364;29;20170;-55
2021/10/31 04:57:01;;;;;;;18.33;13.48;;;22.60;35.20;;;;;;4785434;29;20502;-52
2021/10/31 04:59:29;;;;;;;18.23;13.70;;;22.50;35.10;;;;;;4768741;29;20080;-52
2021/10/31 05:01:56;;;;;;;17.42;13.40;;;22.50;35.10;;;;;;4785595;29;20055;-55
2021/10/31 05:04:23;;;;;;;16.13;12.68;;;22.50;35.10;;;;;;4785526;29;20067;-53
2021/10/31 05:06:50;;;;;;;18.20;13.98;;;22.50;35.10;;;;;;4785494;29;20146;-54
2021/10/31 05:09:18;;;;;;;17.88;13.27;;;22.50;35.10;;;;;;4767718;29;20082;-50
2021/10/31 05:11:45;;;;;;;17.50;13.02;;;22.60;35.10;;;;;;4785145;29;20086;-53
2021/10/31 05:14:12;;;;;;;17.55;13.95;;;22.60;35.10;;;;;;4784207;29;20483;-54
2021/10/31 05:16:40;;;;;;;17.40;13.77;;;22.60;35.10;;;;;;4784048;29;20051;-54
2021/10/31 05:19:08;;;;;;;17.38;12.85;;;22.60;35.00;;;;;;4766623;29;20116;-54
2021/10/31 05:21:36;;;;;;;16.27;12.93;;;22.60;35.00;;;;;;4781926;29;20136;-54
2021/10/31 05:24:03;;;;;;;15.68;12.45;;;22.60;35.00;;;;;;4782618;30;20138;-53
2021/10/31 05:26:30;;;;;;;16.52;12.45;;;22.60;35.00;;;;;;4783678;29;20051;-53
2021/10/31 05:28:57;;;;;;;17.27;13.82;;;22.60;35.00;;;;;;4771012;29;20051;-54
2021/10/31 05:31:25;;;;;;;17.30;12.60;;;22.60;35.00;;;;;;4780272;29;20134;-54
2021/10/31 05:33:52;;;;;;;17.15;11.63;;;22.60;35.00;;;;;;4782659;29;20055;-54
2021/10/31 05:36:20;;;;;;;16.55;12.50;;;22.60;35.00;;;;;;4783542;29;20063;-53
2021/10/31 05:38:47;;;;;;;16.15;11.77;;;22.60;35.00;;;;;;4769314;29;20058;-53
2021/10/31 05:41:14;;;;;;;16.00;12.70;;;22.60;35.00;;;;;;4777731;29;20062;-54
2021/10/31 05:43:42;;;;;;;16.00;12.00;;;22.60;35.00;;;;;;4783557;29;20229;-53
2021/10/31 05:46:11;;;;;;;14.20;11.52;;;22.60;35.00;;;;;;4781989;29;20051;-53
2021/10/31 05:48:38;;;;;;;16.58;12.82;;;22.60;35.00;;;;;;4771177;29;20055;-53
2021/10/31 05:51:05;;;;;;;15.15;12.73;;;22.60;35.00;;;;;;4777500;29;20198;-54
2021/10/31 05:53:32;;;;;;;16.30;12.57;;;22.60;35.00;;;;;;4782681;29;20143;-54
2021/10/31 05:56:00;;;;;;;13.85;11.18;;;22.60;35.00;;;;;;4783292;29;20506;-53
2021/10/31 05:58:27;;;;;;;14.82;11.50;;;22.60;35.00;;;;;;4768326;29;20142;-54
2021/10/31 06:00:54;;;;;;;15.65;11.88;;;22.60;35.00;;;;;;4777978;29;20147;-53
2021/10/31 06:03:22;;;;;;;16.50;12.32;;;22.60;35.00;;;;;;4782177;29;20051;-55
2021/10/31 06:05:50;;;;;;;13.90;11.90;;;22.60;34.90;;;;;;4783231;29;20059;-54
2021/10/31 06:08:17;;;;;;;14.85;11.85;;;22.70;34.90;;;;;;4775763;29;20513;-53
2021/10/31 06:10:46;;;;;;;15.75;13.10;;;22.70;34.70;;;;;;4773073;29;20055;-54
2021/10/31 06:13:29;;;;;;;15.85;12.73;;;22.70;34.60;;;;;;4782270;29;20421;-51
2021/10/31 06:15:56;;;;;;;15.57;12.43;;;22.80;34.40;;;;;;4782528;29;20139;-54
2021/10/31 06:18:24;;;;;;;14.15;11.90;;;22.70;34.30;;;;;;4769976;29;20304;-55
2021/10/31 06:20:51;;;;;;;15.05;12.30;;;22.80;34.30;;;;;;4778099;29;20059;-53
2021/10/31 06:23:18;;;;;;;14.38;12.52;;;22.80;34.20;;;;;;4782309;29;20059;-54
2021/10/31 06:25:45;;;;;;;13.50;11.23;;;22.80;34.10;;;;;;4783115;29;20104;-53
2021/10/31 06:28:12;;;;;;;15.20;13.15;;;22.80;34.00;;;;;;4774694;29;20151;-51
2021/10/31 06:30:39;;;;;;;16.33;12.27;;;22.80;33.90;;;;;;4771150;29;20137;-55
2021/10/31 06:33:07;;;;;;;16.27;12.93;;;22.80;33.90;;;;;;4782095;29;20059;-54
2021/10/31 06:35:34;;;;;;;15.27;12.88;;;22.90;33.80;;;;;;4782037;29;20087;-55
2021/10/31 06:38:01;;;;;;;14.38;12.30;;;22.90;33.70;;;;;;4774026;29;20198;-52
2021/10/31 06:40:29;;;;;;;15.05;12.27;;;23.00;33.70;;;;;;4771850;29;20080;-55
2021/10/31 06:42:57;;;;;;;15.43;12.90;;;23.00;33.60;;;;;;4782020;30;20047;-53
2021/10/31 06:45:24;;;;;;;17.58;13.70;;;23.00;33.50;;;;;;4782239;29;20093;-54
2021/10/31 06:47:51;;;;;;;15.18;13.50;;;23.10;33.40;;;;;;4774888;29;20360;-55
2021/10/31 06:50:18;;;;;;;16.58;12.98;;;23.20;33.30;;;;;;4771513;29;20467;-55
2021/10/31 06:52:49;;;;;;;14.55;12.52;;;23.20;33.20;;;;;;4781913;29;20494;-55
2021/10/31 06:55:16;;;;;;;17.05;12.75;;;23.20;33.10;;;;;;4782536;29;20465;-54
2021/10/31 06:57:44;;;;;;;15.82;12.52;;;23.30;33.10;;;;;;4775701;29;20067;-55
2021/10/31 07:00:11;;;;;;;14.93;12.85;;;23.30;33.00;;;;;;4770442;29;20086;-54
2021/10/31 07:02:39;;;;;;;16.67;12.20;;;23.40;32.90;;;;;;4781659;29;20145;-54
2021/10/31 07:05:07;;;;;;;17.80;11.38;;;23.50;32.90;;;;;;4780093;30;20494;-54
2021/10/31 07:07:34;;;;;;;15.93;11.95;;;23.50;32.70;;;;;;4780625;29;20578;-56
2021/10/31 07:10:03;;;;;;;16.00;13.05;;;23.50;32.60;;;;;;4764055;29;20150;-53
2021/10/31 07:12:30;;;;;;;13.75;12.18;;;23.60;32.60;;;;;;4781907;29;20051;-55
2021/10/31 07:14:57;;;;;;;14.90;11.95;;;23.60;32.50;;;;;;4780538;29;20052;-55
2021/10/31 07:17:24;;;;;;;16.88;13.27;;;23.70;32.40;;;;;;4783583;29;20112;-52
2021/10/31 07:19:51;;;;;;;16.00;12.38;;;23.70;32.30;;;;;;4766100;29;20463;-54
2021/10/31 07:22:19;;;;;;;17.23;13.73;;;23.80;32.30;;;;;;4783312;29;20112;-54
2021/10/31 07:24:49;;;;;;;17.13;14.20;;;23.80;32.30;;;;;;4783369;29;20488;-54
2021/10/31 07:27:16;;;;;;;17.70;13.88;;;23.90;32.30;;;;;;4783633;29;20567;-55
2021/10/31 07:29:43;;;;;;;15.02;13.02;;;23.90;32.20;;;;;;4766176;29;20090;-54
2021/10/31 07:32:10;;;;;;;16.77;13.52;;;23.90;32.10;;;;;;4783665;29;20051;-54
2021/10/31 07:34:39;;;;;;;16.08;13.18;;;24.00;32.10;;;;;;4782888;29;20126;-55
2021/10/31 07:37:06;;;;;;;16.25;12.77;;;24.00;32.00;;;;;;4783927;29;20059;-52
2021/10/31 07:39:35;;;;;;;14.95;12.30;;;24.10;32.00;;;;;;4765695;29;20475;-53
2021/10/31 07:42:02;;;;;;;17.63;13.20;;;24.10;32.00;;;;;;4783364;29;20141;-54
2021/10/31 07:44:30;;;;;;;14.40;12.15;;;24.20;31.90;;;;;;4783341;29;20460;-53
2021/10/31 07:46:57;;;;;;;15.05;12.70;;;24.20;31.80;;;;;;4783051;29;20563;-53
2021/10/31 07:49:25;;;;;;;16.98;13.60;;;24.20;31.80;;;;;;4766543;29;20098;-54
2021/10/31 07:51:52;;;;;;;15.55;12.73;;;24.30;31.80;;;;;;4781651;29;20421;-50
2021/10/31 07:54:25;;;;;;;13.98;11.80;;;24.30;31.70;;;;;;4783154;29;20557;-52
2021/10/31 07:56:59;;;;;;;14.52;12.50;;;24.30;31.70;;;;;;4781938;29;20576;-51
2021/10/31 07:59:26;;;;;;;15.15;12.27;;;24.40;31.60;;;;;;4765462;29;20176;-54
2021/10/31 08:01:54;;;;;;;16.52;12.75;;;24.50;31.60;;;;;;4782078;29;20494;-55
2021/10/31 08:04:23;;;;;;;13.93;11.50;;;24.50;31.50;;;;;;4782836;29;20066;-54
2021/10/31 08:06:50;;;;;;;15.10;12.70;;;24.50;31.50;;;;;;4783300;29;20055;-51
2021/10/31 08:09:17;;;;;;;14.68;12.05;;;24.50;31.40;;;;;;4765539;29;20510;-52
2021/10/31 08:11:45;;;;;;;16.98;13.00;;;24.60;31.40;;;;;;4783132;29;20059;-55
2021/10/31 08:14:14;;;;;;;14.38;12.45;;;24.60;31.40;;;;;;4782979;29;20092;-54
2021/10/31 08:16:41;;;;;;;15.10;11.80;;;24.60;31.30;;;;;;4783176;29;20148;-54
2021/10/31 08:19:08;;;;;;;16.95;12.55;;;24.50;31.30;;;;;;4765794;29;20138;-54
2021/10/31 08:21:37;;;;;;;13.98;11.70;;;24.50;31.40;;;;;;4782771;29;20055;-52
2021/10/31 08:24:06;;;;;;;13.95;11.50;;;24.50;31.50;;;;;;4786076;29;20514;-54
2021/10/31 08:26:34;;;;;;;15.52;12.00;;;24.50;31.50;;;;;;4786383;29;20452;-52
2021/10/31 08:29:02;;;;;;;14.02;12.05;;;24.50;31.60;;;;;;4773110;29;20507;-53
2021/10/31 08:31:36;;;;;;;13.55;11.80;;;24.50;31.70;;;;;;4784694;29;20171;-52
2021/10/31 08:34:03;;;;;;;14.20;11.38;;;24.50;31.70;;;;;;4786049;29;20105;-53
2021/10/31 08:36:31;;;;;;;13.93;11.82;;;24.40;31.70;;;;;;4786034;29;20172;-54
2021/10/31 08:38:59;;;;;;;14.90;12.57;;;24.40;31.80;;;;;;4773697;29;20425;-56
2021/10/31 08:41:29;;;;;;;16.05;11.93;;;24.40;31.80;;;;;;4780899;29;20067;-54
2021/10/31 08:43:58;;;;;;;15.70;11.77;;;24.40;31.90;;;;;;4768372;30;20114;-53
2021/10/31 08:46:26;;;;;;;13.63;11.45;;;24.40;32.00;;;;;;4766990;30;20117;-55
2021/10/31 08:48:54;;;;;;;14.02;11.55;;;24.40;32.10;;;;;;4765098;30;20138;-54
2021/10/31 08:51:23;;;;;;;12.52;10.95;;;24.30;32.10;;;;;;4779795;29;20138;-55
2021/10/31 08:53:52;;;;;;;14.52;12.27;;;24.40;32.10;;;;;;4785332;29;20090;-54
2021/10/31 08:56:26;;;;;;;13.68;11.88;;;24.30;32.20;;;;;;4785007;29;20136;-54
2021/10/31 08:58:54;;;;;;;14.98;11.27;;;24.30;32.20;;;;;;4772684;29;20055;-53
2021/10/31 09:01:21;;;;;;;11.85;10.57;;;24.30;32.20;;;;;;4779053;29;20083;-54
2021/10/31 09:03:52;;;;;;;14.07;11.07;;;24.30;32.30;;;;;;4784841;29;20569;-52
2021/10/31 09:06:22;;;;;;;11.90;10.55;;;24.30;32.30;;;;;;4784603;29;20086;-54
2021/10/31 09:08:49;;;;;;;13.02;10.68;;;24.30;32.30;;;;;;4774160;29;20572;-50
2021/10/31 09:11:16;;;;;;;13.73;10.90;;;24.30;32.40;;;;;;4779210;29;20102;-51
2021/10/31 09:13:43;;;;;;;12.73;9.93;;;24.30;32.50;;;;;;4785189;29;20497;-52
2021/10/31 09:16:11;;;;;;;15.93;10.90;;;24.30;32.50;;;;;;4783431;29;20494;-55
2021/10/31 09:18:38;;;;;;;11.85;9.63;;;24.30;32.50;;;;;;4779787;29;20083;-54
2021/10/31 09:21:07;;;;;;;12.25;9.95;;;24.30;33.10;;;;;;4782479;29;20094;-53
2021/10/31 09:23:35;;;;;;;11.43;9.93;;;24.30;32.60;;;;;;4783954;29;20093;-53
2021/10/31 09:26:03;;;;;;;11.55;9.55;;;24.30;32.60;;;;;;4783869;29;20051;-53
2021/10/31 09:28:31;;;;;;;11.35;9.80;;;24.30;32.60;;;;;;4779419;29;20134;-54
2021/10/31 09:30:58;;;;;;;13.23;10.23;;;24.30;32.60;;;;;;4782929;29;20059;-54
2021/10/31 09:33:26;;;;;;;10.05;9.00;;;24.30;32.60;;;;;;4783626;29;20142;-54
2021/10/31 09:35:58;;;;;;;;;;;24.30;32.70;;;;;;4784649;29;20059;-54
2021/10/31 09:38:28;;;;;;;11.10;8.82;;;24.30;32.70;;;;;;4780282;29;19933;-54
2021/10/31 09:40:56;;;;;;;;;;;24.40;32.70;;;;;;4782485;29;20059;-53
2021/10/31 09:43:27;;;;;;;11.23;9.57;;;24.30;32.70;;;;;;4784412;29;19976;-55
2021/10/31 09:45:59;;;;;;;10.27;8.68;;;24.30;32.70;;;;;;4784307;29;20055;-55
2021/10/31 09:48:31;;;;;;;12.02;9.77;;;24.30;32.80;;;;;;4778512;29;20402;-55
2021/10/31 09:51:00;;;;;;;12.52;9.68;;;24.40;32.80;;;;;;4782893;29;20147;-53
2021/10/31 09:53:28;;;;;;;10.20;8.57;;;24.40;32.90;;;;;;4784079;29;20153;-54
2021/10/31 09:55:57;;;;;;;10.98;9.35;;;24.40;32.90;;;;;;4784236;29;20540;-54
2021/10/31 09:58:34;;;;;;;12.70;9.02;;;24.40;32.90;;;;;;4779634;29;20055;-54
2021/10/31 10:01:09;;;;;;;10.77;8.77;;;24.40;32.90;;;;;;4781828;29;20055;-54
2021/10/31 10:03:37;;;;;;;10.43;8.30;;;24.40;32.90;;;;;;4783664;29;20095;-52
2021/10/31 10:06:17;;;;;;;9.98;8.75;;;24.50;32.90;;;;;;4783840;29;20060;-54
2021/10/31 10:09:08;;;;;;;11.10;8.90;;;24.50;32.90;;;;;;4779361;29;20081;-56
2021/10/31 10:11:41;;;;;;;10.05;8.95;;;24.50;32.90;;;;;;4783387;29;20112;-55
2021/10/31 10:14:23;;;;;;;12.68;9.07;;;24.50;33.00;;;;;;4783714;29;20048;-53
2021/10/31 10:17:01;;;;;;;9.60;8.60;;;24.50;32.90;;;;;;4783613;29;20063;-56
2021/10/31 10:19:34;;;;;;;8.75;7.85;;;24.50;32.90;;;;;;4777892;29;20134;-53
2021/10/31 10:22:07;;;;;;;9.52;8.43;;;24.50;32.90;;;;;;4783450;29;20059;-56
2021/10/31 10:24:38;;;;;;;9.45;8.10;;;24.60;33.60;;;;;;4783322;29;20059;-54
2021/10/31 10:27:08;;;;;;;10.05;8.45;;;24.50;32.90;;;;;;4783719;29;20057;-54
2021/10/31 10:29:38;;;;;;;9.65;8.52;;;24.50;32.90;;;;;;4776966;29;20116;-54
2021/10/31 10:32:13;;;;;;;10.20;8.57;;;24.50;32.90;;;;;;4781285;29;20047;-54
2021/10/31 10:34:54;;;;;;;10.27;8.68;;;24.60;33.00;;;;;;4796487;29;20059;-53
2021/10/31 10:37:31;;;;;;;9.50;8.20;;;24.60;33.00;;;;;;4783485;29;20130;-55
2021/10/31 10:40:09;;;;;;;10.25;7.93;;;24.60;33.00;;;;;;4775649;30;20055;-56
2021/10/31 10:42:41;;;;;;;10.18;7.43;;;24.60;33.00;;;;;;4768084;30;20335;-53
2021/10/31 10:45:10;;;;;;;9.60;8.57;;;24.60;33.00;;;;;;4783492;29;20091;-54
2021/10/31 10:47:49;;;;;;;10.95;8.13;;;24.60;33.00;;;;;;4781473;29;20051;-55
2021/10/31 10:50:21;;;;;;;9.35;8.00;;;24.60;33.00;;;;;;4778999;29;20059;-55
2021/10/31 10:52:49;;;;;;;10.48;8.23;;;24.60;33.00;;;;;;4782866;29;20051;-55
2021/10/31 10:55:19;;;;;;;9.93;7.82;;;24.60;33.00;;;;;;4783306;29;20138;-54
2021/10/31 10:57:53;;;;;;;9.30;7.45;;;24.70;33.10;;;;;;4779852;29;20158;-55
2021/10/31 11:00:32;;;;;;;10.80;8.93;;;24.70;33.10;;;;;;4779244;29;20147;-54
2021/10/31 11:03:05;;;;;;;10.05;8.80;;;24.70;33.10;;;;;;4782716;29;20120;-54
2021/10/31 11:05:37;;;;;;;9.52;7.90;;;24.70;33.10;;;;;;4780691;29;20114;-54
2021/10/31 11:08:12;;;;;;;8.20;7.40;;;24.70;33.10;;;;;;4779330;29;20988;-55
2021/10/31 11:10:49;;;;;;;8.75;7.70;;;24.70;33.10;;;;;;4778755;29;20051;-54
2021/10/31 11:13:16;;;;;;;8.93;7.85;;;24.70;33.10;;;;;;4782682;29;20047;-55
2021/10/31 11:15:43;;;;;;;9.38;7.93;;;24.70;33.10;;;;;;4783119;29;20090;-53
2021/10/31 11:18:11;;;;;;;9.73;8.18;;;24.70;33.10;;;;;;4779595;29;20494;-55
2021/10/31 11:20:44;;;;;;;9.48;8.50;;;24.70;33.10;;;;;;4779492;29;20059;-54
2021/10/31 11:23:14;;;;;;;10.38;8.32;;;24.70;33.10;;;;;;4782424;29;20047;-54
2021/10/31 11:25:41;;;;;;;;;;;24.70;33.10;;;;;;4783118;29;20116;-54
2021/10/31 11:28:12;;;;;;;9.20;8.30;;;24.70;33.10;;;;;;4779463;29;20380;-55
2021/10/31 11:30:45;;;;;;;11.52;8.38;;;24.70;33.10;;;;;;4778724;29;20094;-54
2021/10/31 11:33:13;;;;;;;10.70;8.60;;;24.70;33.10;;;;;;4782335;29;20078;-53
2021/10/31 11:35:41;;;;;;;9.55;7.88;;;24.80;33.20;;;;;;4782480;29;20087;-54
2021/10/31 11:38:18;;;;;;;9.70;8.57;;;24.80;33.20;;;;;;4779745;29;20510;-55
2021/10/31 11:40:50;;;;;;;9.55;8.55;;;24.80;33.20;;;;;;4779600;29;20059;-55
2021/10/31 11:43:21;;;;;;;11.55;8.77;;;24.80;33.20;;;;;;4782160;29;20055;-55
2021/10/31 11:45:51;;;;;;;9.85;8.60;;;24.80;33.20;;;;;;4782629;29;20517;-54
2021/10/31 11:48:23;;;;;;;9.35;8.20;;;24.80;33.20;;;;;;4779084;29;20509;-53
2021/10/31 11:51:11;;;;;;;10.02;8.25;;;24.80;33.20;;;;;;4776019;29;20571;-55
2021/10/31 11:54:13;;;;;;;9.75;8.55;;;24.90;33.20;;;;;;4763583;30;20088;-54
2021/10/31 11:56:42;;;;;;;8.82;7.80;;;24.90;33.10;;;;;;4764252;30;20525;-52
2021/10/31 11:59:15;;;;;;;8.73;7.57;;;24.90;33.10;;;;;;4773420;30;20055;-54
2021/10/31 12:01:56;;;;;;;11.43;8.65;;;24.90;33.10;;;;;;4785958;29;20055;-54
2021/10/31 12:07:42;;;;;;;9.18;7.80;;;24.90;33.10;;;;;;4785064;29;20058;-54
2021/10/31 12:10:31;;;;;;;10.15;8.55;;;24.90;33.10;;;;;;4782063;29;20467;-56
2021/10/31 12:13:19;;;;;;;9.23;7.82;;;24.90;33.10;;;;;;4785610;29;20051;-53
2021/10/31 12:16:09;;;;;;;9.95;8.82;;;24.90;33.10;;;;;;4785171;29;20108;-53
2021/10/31 12:18:54;;;;;;;13.38;8.70;;;24.90;33.10;;;;;;4780142;29;20458;-53
2021/10/31 12:21:33;;;;;;;10.40;8.35;;;24.90;33.10;;;;;;4784637;29;20061;-54
2021/10/31 12:24:03;;;;;;;8.98;8.05;;;24.90;33.10;;;;;;4784517;29;20052;-55
2021/10/31 12:26:50;;;;;;;10.18;8.30;;;24.90;33.10;;;;;;4785779;29;20062;-54
2021/10/31 12:29:19;;;;;;;9.07;8.02;;;24.90;33.10;;;;;;4779492;29;20084;-54
2021/10/31 12:32:17;;;;;;;9.60;8.60;;;24.90;33.20;;;;;;4785528;29;20125;-53
2021/10/31 12:34:47;;;;;;;9.88;8.82;;;24.90;33.10;;;;;;4785404;29;20063;-54
2021/10/31 12:37:26;;;;;;;10.52;8.48;;;24.90;33.20;;;;;;4785749;29;20132;-55
2021/10/31 12:40:05;;;;;;;9.75;8.65;;;24.90;33.20;;;;;;4777959;29;20086;-55
2021/10/31 12:42:46;;;;;;;9.00;7.80;;;25.00;33.20;;;;;;4785042;29;20081;-55
2021/10/31 12:45:23;;;;;;;8.90;7.45;;;25.00;33.20;;;;;;4783837;29;20138;-55
2021/10/31 12:47:57;;;;;;;9.38;8.30;;;25.00;33.30;;;;;;4780452;29;20102;-54
2021/10/31 12:50:28;;;;;;;8.93;7.70;;;25.00;33.30;;;;;;4763391;30;20047;-54
2021/10/31 12:53:09;;;;;;;10.95;8.30;;;25.00;33.20;;;;;;4783760;29;20093;-56
2021/10/31 12:55:38;;;;;;;8.88;7.95;;;25.00;33.30;;;;;;4782800;29;20104;-54